Time;durP1;ratioP1;P1;durP2;ratioP2;P2;SDS_P1;SDS_P2;PMS_P1;PMS_P2;Temp;Humidity;BMP_temperature;BMP_pressure;BME280_temperature;BME280_humidity;BME280_pressure;Samples;Min_cycle;Max_cycle;Signal;HPM_P1;HPM_P2
2022/04/13 00:00:15;;;;;;;30.97;15.32;;;;;;;1.55;69.10;102115.23;1732025;80;21069;-84
2022/04/13 00:02:44;;;;;;;34.13;15.18;;;;;;;1.53;69.17;102124.58;1748851;80;21060;-84
2022/04/13 00:05:10;;;;;;;33.35;14.55;;;;;;;1.53;69.30;102119.39;1748418;80;21048;-84
2022/04/13 00:07:37;;;;;;;35.73;14.33;;;;;;;1.53;69.39;102125.88;1752929;80;21101;-84
2022/04/13 00:10:05;;;;;;;37.40;14.63;;;;;;;1.54;69.44;102126.41;1761892;80;21066;-86
2022/04/13 00:12:32;;;;;;;34.30;15.10;;;;;;;1.54;69.47;102119.52;1775070;80;21066;-86
2022/04/13 00:14:59;;;;;;;34.20;15.10;;;;;;;1.55;69.44;102116.53;1772243;80;22571;-87
2022/04/13 00:17:26;;;;;;;32.48;15.48;;;;;;;1.53;69.38;102121.59;1779509;80;21125;-84
2022/04/13 00:19:53;;;;;;;36.93;14.93;;;;;;;1.50;69.41;102118.76;1779909;80;21118;-87
2022/04/13 00:22:20;;;;;;;34.80;14.85;;;;;;;1.49;69.55;102116.92;1756297;80;21050;-88
2022/04/13 00:24:46;;;;;;;36.98;15.45;;;;;;;1.50;69.63;102104.84;1761241;80;21034;-88
2022/04/13 00:27:13;;;;;;;30.15;15.15;;;;;;;1.50;69.58;102107.08;1767992;79;21740;-88
2022/04/13 00:29:40;;;;;;;35.30;16.07;;;;;;;1.47;69.52;102102.92;1749359;80;21066;-85
2022/04/13 00:32:08;;;;;;;32.80;15.38;;;;;;;1.45;69.65;102103.59;1767427;80;21540;-84
2022/04/13 00:34:34;;;;;;;30.27;15.13;;;;;;;1.43;69.72;102092.17;1767459;79;21070;-84
2022/04/13 00:37:01;;;;;;;38.65;15.30;;;;;;;1.42;69.71;102097.73;1773648;78;21065;-84
2022/04/13 00:39:29;;;;;;;36.35;15.75;;;;;;;1.39;69.79;102096.20;1806453;78;21927;-83
2022/04/13 00:42:06;;;;;;;37.67;15.78;;;;;;;1.37;69.93;102093.87;1818006;78;21034;-83
2022/04/13 00:44:34;;;;;;;36.08;16.77;;;;;;;1.38;70.00;102090.87;1802717;78;21083;-83
2022/04/13 00:47:02;;;;;;;40.23;17.85;;;;;;;1.39;70.05;102083.59;1749324;79;21130;-83
2022/04/13 00:49:28;;;;;;;43.00;17.23;;;;;;;1.41;70.01;102085.92;1785850;77;21615;-84
2022/04/13 00:52:00;;;;;;;37.73;17.20;;;;;;;1.41;70.01;102079.44;1795105;77;21782;-86
2022/04/13 00:54:29;;;;;;;33.90;16.40;;;;;;;1.40;69.99;102075.05;1818410;77;21418;-84
2022/04/13 00:56:56;;;;;;;37.40;16.77;;;;;;;1.40;69.95;102073.34;1818027;78;21117;-84
2022/04/13 00:59:24;;;;;;;36.03;16.65;;;;;;;1.39;69.96;102066.73;1812407;78;21187;-84
2022/04/13 01:01:51;;;;;;;33.10;16.10;;;;;;;1.36;69.91;102057.91;1795103;78;21097;-84
2022/04/13 01:04:18;;;;;;;31.87;15.25;;;;;;;1.35;69.88;102060.37;1809111;79;22604;-84
2022/04/13 01:06:45;;;;;;;33.08;15.85;;;;;;;1.33;69.90;102061.57;1814260;78;21070;-84
2022/04/13 01:09:15;;;;;;;31.33;15.23;;;;;;;1.33;69.95;102069.36;1809214;77;21056;-84
2022/04/13 01:11:41;;;;;;;30.30;15.80;;;;;;;1.32;69.96;102072.71;1785494;77;21058;-84
2022/04/13 01:14:08;;;;;;;31.85;14.60;;;;;;;1.30;69.97;102074.27;1811272;78;21458;-84
2022/04/13 01:16:37;;;;;;;38.83;16.77;;;;;;;1.29;69.94;102074.14;1801817;79;21849;-84
2022/04/13 01:19:04;;;;;;;33.67;15.25;;;;;;;1.15;70.00;102055.73;1788873;78;21094;-87
2022/04/13 01:21:45;;;;;;;30.40;15.05;;;;;;;1.26;70.02;102078.70;1818468;77;21061;-87
2022/04/13 01:24:12;;;;;;;32.23;15.58;;;;;;;1.24;70.07;102080.62;1808851;78;21491;-84
2022/04/13 01:26:39;;;;;;;33.73;14.20;;;;;;;1.20;70.08;102084.64;1794182;77;21653;-85
2022/04/13 01:29:06;;;;;;;29.67;15.05;;;;;;;1.16;70.22;102086.47;1808062;78;21808;-83
2022/04/13 01:31:33;;;;;;;29.48;14.47;;;;;;;1.13;70.53;102097.50;1785243;78;21088;-85
2022/04/13 01:34:00;;;;;;;32.55;14.95;;;;;;;1.12;70.60;102099.95;1806985;78;21121;-84
2022/04/13 01:36:27;;;;;;;26.55;13.93;;;;;;;1.13;70.76;102105.68;1815886;77;21197;-84
2022/04/13 01:38:57;;;;;;;29.70;14.35;;;;;;;1.13;70.84;102105.28;1763602;80;21058;-84
2022/04/13 01:41:24;;;;;;;32.65;14.47;;;;;;;1.13;70.94;102107.87;1774582;79;22538;-83
2022/04/13 01:43:54;;;;;;;26.45;13.43;;;;;;;1.12;70.91;102101.25;1791821;79;21054;-83
2022/04/13 01:46:26;;;;;;;31.35;15.03;;;;;;;1.12;70.95;102102.15;1806141;77;21131;-84
2022/04/13 01:48:53;;;;;;;37.10;16.00;;;;;;;1.14;70.97;102108.77;1785428;77;21309;-83
2022/04/13 01:51:20;;;;;;;34.63;15.30;;;;;;;1.13;71.00;102107.87;1786575;79;21073;-84
2022/04/13 01:53:50;;;;;;;35.38;14.70;;;;;;;1.11;71.07;102107.23;1782085;78;21744;-84
2022/04/13 01:56:17;;;;;;;33.92;14.83;;;;;;;1.13;71.08;102100.48;1806529;77;21055;-84
2022/04/13 01:58:44;;;;;;;32.35;14.53;;;;;;;1.13;71.04;102100.09;1790371;77;21071;-84
2022/04/13 02:01:11;;;;;;;29.63;13.93;;;;;;;1.12;71.05;102108.63;1788665;79;21062;-84
2022/04/13 02:03:37;;;;;;;28.50;13.58;;;;;;;1.11;71.04;102109.83;1785135;77;21588;-85
2022/04/13 02:06:07;;;;;;;27.87;14.55;;;;;;;1.11;71.03;102107.23;1782576;79;21855;-84
2022/04/13 02:08:34;;;;;;;29.32;14.03;;;;;;;1.10;71.07;102111.48;1797632;79;21058;-87
2022/04/13 02:11:02;;;;;;;30.05;13.43;;;;;;;1.09;71.05;102119.13;1778309;79;21102;-84
2022/04/13 02:13:29;;;;;;;29.98;13.70;;;;;;;1.06;71.03;102109.81;1797701;79;21587;-86
2022/04/13 02:15:56;;;;;;;30.32;14.10;;;;;;;1.04;71.03;102119.16;1790490;79;21531;-86
2022/04/13 02:18:22;;;;;;;22.85;12.68;;;;;;;1.03;71.06;102122.51;1789954;79;21894;-84
2022/04/13 02:20:49;;;;;;;25.62;13.50;;;;;;;1.01;71.13;102120.17;1800515;77;21668;-84
2022/04/13 02:23:16;;;;;;;24.57;12.07;;;;;;;0.90;71.20;102102.40;1787764;77;21047;-84
2022/04/13 02:25:43;;;;;;;27.05;13.20;;;;;;;0.86;71.24;102102.52;1770463;79;21068;-87
2022/04/13 02:28:09;;;;;;;23.00;11.35;;;;;;;0.96;71.33;102118.50;1783572;79;21580;-84
2022/04/13 02:30:36;;;;;;;28.73;12.65;;;;;;;0.95;71.41;102127.05;1803810;78;21747;-87
2022/04/13 02:33:03;;;;;;;24.12;12.75;;;;;;;0.93;71.41;102126.91;1794286;79;21585;-85
2022/04/13 02:35:30;;;;;;;28.85;12.13;;;;;;;0.92;71.51;102134.18;1796052;77;20999;-84
2022/04/13 02:37:58;;;;;;;23.42;12.28;;;;;;;0.91;71.54;102136.23;1778401;79;21598;-84
2022/04/13 02:40:29;;;;;;;30.30;13.10;;;;;;;0.90;71.56;102137.40;1762237;80;21553;-85
2022/04/13 02:42:59;;;;;;;31.15;13.15;;;;;;;0.88;71.60;102129.52;1749847;80;23287;-85
2022/04/13 02:45:26;;;;;;;27.75;13.98;;;;;;;0.87;71.60;102126.78;1754697;80;21051;-88
2022/04/13 02:47:53;;;;;;;24.50;12.35;;;;;;;0.85;71.66;102138.31;1758976;80;21057;-88
2022/04/13 02:50:20;;;;;;;29.15;14.10;;;;;;;0.85;71.75;102127.95;1747633;80;21088;-88
2022/04/13 02:52:47;;;;;;;26.42;13.85;;;;;;;0.84;71.86;102127.80;1764718;80;21484;-90
2022/04/13 02:55:14;;;;;;;36.25;14.50;;;;;;;0.86;71.94;102130.14;1763817;80;21786;-87
2022/04/13 02:57:41;;;;;;;30.17;15.20;;;;;;;0.89;72.00;102131.71;1748999;80;21216;-86
2022/04/13 03:00:10;;;;;;;34.78;15.38;;;;;;;0.89;71.99;102127.42;1749926;80;21059;-87
2022/04/13 03:02:39;;;;;;;36.60;16.17;;;;;;;0.90;72.00;102132.22;1773310;80;21002;-87
2022/04/13 03:05:08;;;;;;;32.13;15.30;;;;;;;0.90;72.01;102136.09;1761506;80;21097;-85
2022/04/13 03:07:35;;;;;;;27.98;14.35;;;;;;;0.88;72.00;102130.81;1769681;79;22391;-85
2022/04/13 03:10:06;;;;;;;29.27;14.45;;;;;;;0.87;72.04;102134.16;1748747;80;21043;-88
2022/04/13 03:12:38;;;;;;;24.23;13.68;;;;;;;0.87;72.06;102126.78;1748755;80;21087;-88
2022/04/13 03:15:06;;;;;;;25.80;12.50;;;;;;;0.88;72.07;102118.22;1715318;81;21113;-88
2022/04/13 03:17:33;;;;;;;23.05;11.45;;;;;;;0.86;72.07;102120.67;1753912;79;21041;-88
2022/04/13 03:20:03;;;;;;;30.50;12.43;;;;;;;0.87;72.07;102126.39;1757025;80;21769;-88
2022/04/13 03:22:31;;;;;;;24.02;12.93;;;;;;;0.87;72.10;102122.89;1774819;79;21128;-87
2022/04/13 03:25:01;;;;;;;22.87;12.20;;;;;;;0.86;72.09;102123.26;1776495;79;21630;-88
2022/04/13 03:27:29;;;;;;;24.98;12.25;;;;;;;0.86;72.03;102128.84;1755838;80;21183;-87
2022/04/13 03:29:58;;;;;;;31.10;13.55;;;;;;;0.83;72.05;102125.61;1772358;79;21104;-86
2022/04/13 03:32:25;;;;;;;24.52;12.35;;;;;;;0.81;72.09;102123.64;1773780;79;21757;-85
2022/04/13 03:34:52;;;;;;;27.02;13.05;;;;;;;0.81;72.07;102128.83;1772411;79;21057;-87
2022/04/13 03:37:21;;;;;;;27.30;13.38;;;;;;;0.78;72.05;102122.60;1759154;80;21056;-81
2022/04/13 03:39:47;;;;;;;26.23;13.25;;;;;;;0.77;72.13;102122.10;1784247;79;21801;-82
2022/04/13 03:42:14;;;;;;;24.67;12.68;;;;;;;0.78;72.19;102115.22;1769858;80;21061;-86
2022/04/13 03:44:41;;;;;;;29.57;12.20;;;;;;;0.78;72.28;102107.05;1783989;80;21720;-88
2022/04/13 03:47:08;;;;;;;25.27;12.28;;;;;;;0.81;72.35;102112.91;1781011;80;21058;-88
2022/04/13 03:49:35;;;;;;;25.92;12.85;;;;;;;0.85;72.37;102109.80;1788664;79;21046;-90
2022/04/13 03:52:02;;;;;;;27.22;13.30;;;;;;;0.88;72.38;102107.48;1759694;80;21073;-84
2022/04/13 03:54:29;;;;;;;27.35;12.68;;;;;;;0.85;72.35;102103.32;1773351;80;21018;-87
2022/04/13 03:56:59;;;;;;;26.27;12.37;;;;;;;0.92;72.34;102109.55;1766363;79;22555;-87
2022/04/13 03:59:26;;;;;;;28.42;12.82;;;;;;;0.95;72.31;102112.39;1785047;80;21077;-85
2022/04/13 04:01:53;;;;;;;28.62;11.38;;;;;;;0.99;72.32;102111.36;1731776;82;21573;-87
2022/04/13 04:04:20;;;;;;;26.27;11.97;;;;;;;1.04;72.35;102108.38;1777718;80;21031;-88
2022/04/13 04:07:52;;;;;;;;;;;;;;;;;;;;;
2022/04/13 04:10:31;;;;;;;23.40;10.93;;;;;;;1.57;72.89;102117.95;1714196;79;21033;-92
2022/04/13 04:12:56;;;;;;;25.70;11.60;;;;;;;2.38;73.10;102123.67;1773629;80;22169;-86
2022/04/13 04:15:25;;;;;;;27.45;12.85;;;;;;;3.09;73.07;102120.61;1774841;79;21146;-87
2022/04/13 04:17:55;;;;;;;22.45;12.03;;;;;;;3.42;71.59;102117.49;1756873;81;21386;-90
2022/04/13 04:20:23;;;;;;;25.88;11.90;;;;;;;3.35;70.73;102124.32;1772501;80;21694;-89
2022/04/13 04:22:52;;;;;;;26.00;12.50;;;;;;;3.24;70.43;102130.00;1785573;79;21781;-89
2022/04/13 04:25:19;;;;;;;29.40;12.80;;;;;;;3.24;70.52;102135.20;1788654;77;21074;-89
2022/04/13 04:27:48;;;;;;;24.40;12.05;;;;;;;4.08;71.89;102128.91;1789022;79;21659;-89
2022/04/13 04:30:31;;;;;;;23.22;12.73;;;;;;;5.32;71.88;102130.67;1780085;79;21642;-92
2022/04/13 04:32:58;;;;;;;;;;;;;;;6.51;71.04;102121.49;1756605;80;21008;-92
2022/04/13 04:35:35;;;;;;;23.40;12.37;;;;;;;7.21;69.03;102117.13;1787878;79;20565;-91
2022/04/13 04:38:13;;;;;;;24.67;11.90;;;;;;;7.37;67.62;102117.21;1785510;79;20999;-91
2022/04/13 04:40:40;;;;;;;27.98;12.45;;;;;;;7.57;66.81;102121.03;1763388;80;21066;-85
2022/04/13 04:43:07;;;;;;;21.48;12.20;;;;;;;8.14;66.71;102132.17;1780718;79;21229;-87
2022/04/13 04:45:42;;;;;;;24.87;12.25;;;;;;;9.11;66.48;102127.03;1780248;80;21082;-88
2022/04/13 04:48:08;;;;;;;21.25;11.40;;;;;;;10.14;65.67;102126.53;1759981;80;21852;-91
2022/04/13 04:50:35;;;;;;;22.98;12.40;;;;;;;11.11;64.41;102127.11;1764063;80;21027;-90
2022/04/13 04:53:02;;;;;;;32.80;16.93;;;;;;;11.92;62.90;102134.64;1768211;79;21024;-88
2022/04/13 04:55:29;;;;;;;28.02;18.87;;;;;;;12.64;61.69;102130.02;1781114;80;21194;-90
2022/04/13 04:57:56;;;;;;;23.57;14.87;;;;;;;13.30;60.40;102136.86;1772949;80;21058;-90
2022/04/13 05:00:22;;;;;;;18.85;12.43;;;;;;;13.85;59.22;102137.91;1761926;80;21652;-90
2022/04/13 05:02:50;;;;;;;21.73;12.15;;;;;;;14.38;58.23;102138.35;1777606;79;21022;-91
2022/04/13 05:05:17;;;;;;;21.93;13.13;;;;;;;14.93;57.51;102140.48;1755986;81;21381;-92
2022/04/13 05:07:44;;;;;;;23.20;12.35;;;;;;;15.56;57.04;102138.71;1755246;80;21662;-90
2022/04/13 05:10:15;;;;;;;24.35;13.55;;;;;;;16.08;55.94;102137.84;1786437;79;21097;-91
2022/04/13 05:12:57;;;;;;;25.10;14.23;;;;;;;16.13;54.71;102132.22;1772877;79;21849;-91
2022/04/13 05:15:21;;;;;;;34.58;24.75;;;;;;;15.62;53.35;102137.54;1767002;79;21059;-90
2022/04/13 05:17:48;;;;;;;35.65;24.27;;;;;;;14.69;52.10;102139.76;1786303;79;21008;-90
2022/04/13 05:20:15;;;;;;;27.37;16.70;;;;;;;13.73;51.69;102154.28;1783306;79;21263;-90
2022/04/13 05:22:42;;;;;;;24.95;14.28;;;;;;;12.81;51.97;102157.97;1766076;80;21034;-90
2022/04/13 05:25:15;;;;;;;25.72;15.88;;;;;;;12.17;52.47;102151.05;1780214;80;21750;-90
2022/04/13 05:27:42;;;;;;;32.00;21.30;;;;;;;11.67;52.79;102144.12;1760829;80;21045;-89
2022/04/13 05:30:16;;;;;;;27.80;15.25;;;;;;;11.19;53.06;102146.83;1763158;81;21011;-90
2022/04/13 05:32:58;;;;;;;;;;;;;;;10.74;53.44;102148.73;1767793;81;21102;-89
2022/04/13 05:35:25;;;;;;;23.35;12.13;;;;;;;10.41;53.71;102150.67;1732757;82;20249;-88
2022/04/13 05:37:53;;;;;;;27.20;12.70;;;;;;;10.00;53.90;102150.40;1741531;81;22654;-90
2022/04/13 05:40:21;;;;;;;24.65;14.35;;;;;;;9.70;54.28;102157.66;1743533;81;21043;-89
2022/04/13 05:42:48;;;;;;;30.12;18.73;;;;;;;9.47;54.60;102153.84;1761607;81;21031;-90
2022/04/13 05:45:16;;;;;;;37.75;24.02;;;;;;;9.27;55.06;102152.80;1745767;81;21113;-88
2022/04/13 05:47:44;;;;;;;51.25;25.48;;;;;;;9.23;55.40;102153.04;1765676;81;21035;-89
2022/04/13 05:50:11;;;;;;;36.55;21.07;;;;;;;9.20;55.55;102154.63;1743935;80;21734;-89
2022/04/13 05:52:39;;;;;;;31.00;18.35;;;;;;;9.11;55.72;102158.55;1740888;81;21595;-85
2022/04/13 05:55:07;;;;;;;30.35;16.15;;;;;;;9.09;56.10;102154.05;1740906;81;21036;-85
2022/04/13 05:57:34;;;;;;;36.13;17.02;;;;;;;9.08;56.22;102153.55;1740919;81;21020;-85
2022/04/13 06:00:05;;;;;;;36.60;19.48;;;;;;;9.05;56.30;102150.77;1762247;81;21509;-85
2022/04/13 06:02:33;;;;;;;33.10;17.25;;;;;;;9.08;56.63;102157.06;1745201;81;21754;-85
2022/04/13 06:05:00;;;;;;;29.35;16.25;;;;;;;9.22;56.80;102172.69;1771695;81;21043;-85
2022/04/13 06:07:26;;;;;;;27.37;15.70;;;;;;;9.34;56.68;102181.20;1742401;81;21071;-86
2022/04/13 06:09:53;;;;;;;35.60;17.98;;;;;;;9.38;56.47;102186.22;1754804;81;21031;-86
2022/04/13 06:12:23;;;;;;;31.60;15.60;;;;;;;9.44;56.19;102176.02;1760960;81;21055;-85
2022/04/13 06:15:09;;;;;;;40.58;21.60;;;;;;;9.46;56.06;102175.68;1740371;81;21779;-90
2022/04/13 06:17:36;;;;;;;40.75;21.62;;;;;;;9.50;56.11;102177.25;1747146;81;21007;-90
2022/04/13 06:20:06;;;;;;;38.95;21.95;;;;;;;9.65;56.01;102180.20;1771601;80;21063;-90
2022/04/13 06:22:39;;;;;;;28.55;16.20;;;;;;;9.78;55.64;102181.70;1750447;80;22079;-91
2022/04/13 06:25:07;;;;;;;24.95;14.93;;;;;;;9.90;55.20;102176.66;1755578;80;21086;-91
2022/04/13 06:27:35;;;;;;;30.43;15.63;;;;;;;9.92;54.59;102175.43;1750333;81;22569;-86
2022/04/13 06:30:08;;;;;;;25.23;14.73;;;;;;;9.88;54.41;102175.69;1712966;82;21059;-90
2022/04/13 06:32:41;;;;;;;26.82;15.18;;;;;;;10.04;54.58;102177.77;1720478;82;21066;-86
2022/04/13 06:35:26;;;;;;;27.77;14.33;;;;;;;10.17;54.28;102165.70;1740388;81;21110;-86
2022/04/13 06:37:52;;;;;;;25.02;15.35;;;;;;;10.22;54.07;102147.53;1750242;81;21117;-86
2022/04/13 06:40:19;;;;;;;28.67;17.02;;;;;;;10.20;53.87;102148.77;1758441;80;21295;-86
2022/04/13 06:42:47;;;;;;;28.75;17.85;;;;;;;10.28;53.91;102160.55;1771907;80;21035;-86
2022/04/13 06:45:14;;;;;;;33.00;16.30;;;;;;;10.38;53.75;102164.98;1749093;80;21046;-86
2022/04/13 06:47:41;;;;;;;23.12;12.58;;;;;;;10.44;53.57;102160.94;1753527;80;21105;-86
2022/04/13 06:50:09;;;;;;;21.00;11.97;;;;;;;10.47;53.20;102158.46;1769029;80;21031;-86
2022/04/13 06:52:36;;;;;;;22.98;13.58;;;;;;;10.46;52.89;102156.64;1760844;79;21682;-86
2022/04/13 06:55:09;;;;;;;21.50;13.45;;;;;;;10.45;52.83;102161.83;1721390;81;21294;-86
2022/04/13 06:57:37;;;;;;;23.65;14.23;;;;;;;10.44;52.89;102168.83;1752561;80;21541;-85
2022/04/13 07:00:08;;;;;;;22.45;13.83;;;;;;;10.41;52.91;102171.30;1743841;80;21084;-85
2022/04/13 07:02:38;;;;;;;21.85;15.25;;;;;;;10.35;52.98;102167.06;1763905;79;21047;-86
2022/04/13 07:05:11;;;;;;;24.40;14.98;;;;;;;10.33;53.03;102173.98;1743534;80;21795;-88
2022/04/13 07:07:55;;;;;;;23.52;13.88;;;;;;;10.18;52.93;102176.73;1756933;81;21090;-86
2022/04/13 07:10:27;;;;;;;26.55;14.85;;;;;;;10.07;53.11;102164.78;1765931;80;21083;-86
2022/04/13 07:12:56;;;;;;;24.80;15.58;;;;;;;10.15;53.04;102183.57;1773054;79;21055;-86
2022/04/13 07:15:23;;;;;;;17.48;12.90;;;;;;;10.16;53.13;102182.77;1774268;80;21042;-90
2022/04/13 07:17:52;;;;;;;22.87;13.30;;;;;;;10.18;53.00;102178.47;1764015;80;21710;-86
2022/04/13 07:20:19;;;;;;;21.52;13.93;;;;;;;10.18;52.81;102171.47;1743540;80;21083;-86
2022/04/13 07:22:48;;;;;;;22.50;13.13;;;;;;;10.10;52.60;102172.84;1743721;80;21585;-85
2022/04/13 07:25:15;;;;;;;19.73;12.88;;;;;;;10.09;52.61;102178.91;1743555;80;21051;-86
2022/04/13 07:27:41;;;;;;;22.25;13.50;;;;;;;10.08;52.43;102173.17;1749279;80;21093;-85
2022/04/13 07:30:10;;;;;;;21.35;14.28;;;;;;;10.02;52.41;102172.84;1759208;79;22590;-86
2022/04/13 07:32:36;;;;;;;25.60;13.53;;;;;;;10.00;52.44;102181.97;1745363;80;21027;-86
2022/04/13 07:35:05;;;;;;;25.85;14.40;;;;;;;9.99;52.57;102180.18;1751253;80;21076;-85
2022/04/13 07:37:32;;;;;;;22.45;12.70;;;;;;;10.07;52.66;102178.83;1752795;80;21253;-86
2022/04/13 07:40:01;;;;;;;25.77;14.68;;;;;;;10.18;52.76;102183.31;1754291;80;21094;-86
2022/04/13 07:42:28;;;;;;;25.90;14.83;;;;;;;10.27;52.69;102183.77;1762894;79;21923;-85
2022/04/13 07:44:55;;;;;;;27.73;14.30;;;;;;;10.27;52.55;102157.45;1774674;80;21020;-89
2022/04/13 07:47:27;;;;;;;19.45;13.53;;;;;;;10.41;52.52;102181.83;1774514;79;21094;-88
2022/04/13 07:49:54;;;;;;;23.60;13.70;;;;;;;10.46;52.31;102182.97;1772584;80;21259;-89
2022/04/13 07:52:21;;;;;;;24.57;14.05;;;;;;;10.52;52.35;102191.58;1743638;80;21102;-89
2022/04/13 07:54:50;;;;;;;24.72;15.48;;;;;;;10.62;52.35;102183.70;1752061;80;22548;-86
2022/04/13 07:57:17;;;;;;;29.25;17.73;;;;;;;10.72;52.15;102186.34;1741865;82;21021;-89
2022/04/13 07:59:44;;;;;;;28.70;17.07;;;;;;;10.74;52.03;102187.35;1749954;80;21117;-86
2022/04/13 08:02:10;;;;;;;30.48;17.02;;;;;;;10.82;52.13;102189.50;1771206;80;21195;-85
2022/04/13 08:04:37;;;;;;;28.15;15.85;;;;;;;10.86;52.01;102185.28;1760023;80;21049;-85
2022/04/13 08:07:04;;;;;;;27.13;16.65;;;;;;;10.95;52.06;102181.76;1743927;80;21792;-87
2022/04/13 08:09:47;;;;;;;26.87;16.57;;;;;;;10.86;51.73;102167.73;1742548;80;21023;-87
2022/04/13 08:12:15;;;;;;;25.30;16.82;;;;;;;10.98;51.89;102179.27;1747641;80;21560;-89
2022/04/13 08:14:45;;;;;;;27.70;18.48;;;;;;;11.15;51.79;102172.14;1775445;79;21043;-89
2022/04/13 08:17:12;;;;;;;28.23;17.30;;;;;;;11.27;51.81;102167.83;1751804;80;21055;-89
2022/04/13 08:19:41;;;;;;;28.70;17.02;;;;;;;11.38;51.49;102159.09;1727950;81;21171;-88
2022/04/13 08:22:08;;;;;;;36.77;16.85;;;;;;;11.34;51.33;102162.00;1747935;80;21052;-91
2022/04/13 08:24:34;;;;;;;34.23;18.77;;;;;;;11.42;51.48;102159.70;1744150;80;21561;-89
2022/04/13 08:27:11;;;;;;;28.62;17.85;;;;;;;11.56;51.38;102154.63;1739229;81;21210;-91
2022/04/13 08:29:39;;;;;;;30.02;16.02;;;;;;;11.58;50.95;102154.66;1752161;80;21074;-86
2022/04/13 08:32:06;;;;;;;31.27;16.07;;;;;;;11.61;50.98;102166.68;1763826;79;22607;-86
2022/04/13 08:34:33;;;;;;;28.87;16.75;;;;;;;11.75;51.00;102170.83;1695245;83;21065;-90
2022/04/13 08:37:01;;;;;;;24.32;15.80;;;;;;;11.88;50.76;102172.25;1758577;80;21039;-90
2022/04/13 08:39:28;;;;;;;25.37;15.90;;;;;;;11.90;50.50;102167.98;1777634;79;21037;-90
2022/04/13 08:42:09;;;;;;;28.02;15.95;;;;;;;11.92;50.48;102167.62;1793319;77;21591;-91
2022/04/13 08:44:51;;;;;;;24.02;15.98;;;;;;;11.94;50.28;102159.77;1787263;77;22422;-92
2022/04/13 08:47:23;;;;;;;23.47;15.48;;;;;;;11.99;50.34;102171.40;1781682;79;21050;-89
2022/04/13 08:49:52;;;;;;;24.87;16.12;;;;;;;12.11;50.54;102175.88;1786638;79;21562;-90
2022/04/13 08:52:22;;;;;;;30.72;16.57;;;;;;;12.31;50.40;102170.08;1797042;78;21091;-86
2022/04/13 08:55:09;;;;;;;28.23;16.62;;;;;;;12.50;50.37;102166.86;1775370;80;21044;-86
2022/04/13 08:57:40;;;;;;;32.60;16.17;;;;;;;12.66;50.15;102168.39;1787907;79;22748;-86
2022/04/13 09:00:13;;;;;;;26.70;16.82;;;;;;;12.74;49.95;102163.86;1784517;79;21112;-86
2022/04/13 09:02:54;;;;;;;28.60;17.42;;;;;;;12.88;49.87;102164.41;1794538;79;21524;-86
2022/04/13 09:05:29;;;;;;;28.42;17.23;;;;;;;13.06;49.64;102163.30;1786646;77;21049;-86
2022/04/13 09:08:10;;;;;;;30.20;17.87;;;;;;;13.17;49.41;102152.70;1782367;79;21075;-86
2022/04/13 09:10:37;;;;;;;31.25;18.27;;;;;;;13.30;49.25;102154.05;1782648;77;21751;-90
2022/04/13 09:13:06;;;;;;;31.20;19.02;;;;;;;13.45;49.17;102158.59;1792902;79;21049;-90
2022/04/13 09:15:33;;;;;;;32.78;18.95;;;;;;;13.56;48.96;102162.95;1797969;77;21026;-90
2022/04/13 09:18:00;;;;;;;26.60;18.25;;;;;;;13.60;48.64;102156.92;1787970;79;21043;-85
2022/04/13 09:20:29;;;;;;;26.27;16.93;;;;;;;13.68;48.61;102158.51;1785398;79;21058;-85
2022/04/13 09:22:58;;;;;;;31.48;18.12;;;;;;;13.81;48.45;102154.11;1797343;79;22548;-89
2022/04/13 09:25:24;;;;;;;32.70;19.10;;;;;;;13.84;47.99;102158.63;1775713;79;21066;-89
2022/04/13 09:27:51;;;;;;;30.00;19.00;;;;;;;13.80;47.90;102163.80;1761844;79;21047;-89
2022/04/13 09:30:18;;;;;;;31.12;18.77;;;;;;;13.75;47.66;102161.84;1808006;77;21047;-89
2022/04/13 09:32:46;;;;;;;28.87;18.98;;;;;;;13.71;47.56;102158.63;1808025;79;21034;-89
2022/04/13 09:35:19;;;;;;;28.05;16.20;;;;;;;13.76;47.68;102153.08;1807406;79;21887;-89
2022/04/13 09:37:46;;;;;;;28.10;16.90;;;;;;;13.84;47.38;102152.02;1777458;79;21077;-89
2022/04/13 09:40:40;;;;;;;26.40;16.95;;;;;;;13.79;47.35;102146.14;1783345;79;21051;-89
2022/04/13 09:43:16;;;;;;;30.37;18.40;;;;;;;13.85;47.24;102137.52;1761358;80;21067;-89
2022/04/13 09:45:46;;;;;;;30.85;16.65;;;;;;;13.85;47.03;102131.30;1739103;81;21070;-85
2022/04/13 09:48:16;;;;;;;24.18;15.60;;;;;;;13.82;46.90;102129.46;1744852;81;21577;-85
2022/04/13 09:50:44;;;;;;;28.00;17.62;;;;;;;13.81;46.71;102126.32;1747788;79;21066;-85
2022/04/13 09:53:12;;;;;;;26.75;17.00;;;;;;;13.78;46.65;102117.86;1735751;81;21742;-85
2022/04/13 09:55:41;;;;;;;27.93;16.95;;;;;;;13.86;46.57;102117.23;1760356;81;21059;-85
2022/04/13 09:58:14;;;;;;;31.10;17.67;;;;;;;13.88;46.43;102110.23;1746479;80;21055;-87
2022/04/13 10:00:42;;;;;;;22.60;15.28;;;;;;;14.00;46.49;102114.59;1710036;81;21988;-86
2022/04/13 10:03:12;;;;;;;26.10;16.65;;;;;;;13.97;45.74;102107.47;1746133;81;21054;-85
2022/04/13 10:05:46;;;;;;;25.85;14.83;;;;;;;13.94;45.70;102103.81;1739900;81;21053;-85
2022/04/13 10:08:14;;;;;;;26.02;14.93;;;;;;;13.92;45.42;102098.46;1732627;81;21048;-90
2022/04/13 10:10:43;;;;;;;17.48;10.58;;;;;;;13.95;45.26;102102.98;1739116;81;21087;-86
2022/04/13 10:13:12;;;;;;;15.10;9.23;;;;;;;14.01;44.78;102096.55;1738673;81;21786;-85
2022/04/13 10:15:39;;;;;;;15.15;9.18;;;;;;;13.99;44.32;102096.50;1742332;81;21057;-86
2022/04/13 10:18:11;;;;;;;30.57;9.13;;;;;;;13.98;43.97;102089.42;1766836;80;21042;-86
2022/04/13 10:20:47;;;;;;;12.98;8.73;;;;;;;14.14;43.93;102093.88;1749328;80;21166;-87
2022/04/13 10:23:15;;;;;;;13.15;8.40;;;;;;;14.39;43.90;102085.83;1759903;79;21081;-85
2022/04/13 10:25:43;;;;;;;15.85;10.20;;;;;;;14.57;43.77;102091.27;1777918;79;22443;-86
2022/04/13 10:28:17;;;;;;;13.55;8.25;;;;;;;14.73;43.29;102083.33;1772818;80;21532;-86
2022/04/13 10:30:44;;;;;;;10.75;7.75;;;;;;;14.90;43.22;102078.11;1752523;80;21043;-85
2022/04/13 10:33:13;;;;;;;15.50;8.50;;;;;;;15.06;42.87;102072.80;1764340;80;21023;-86
2022/04/13 10:35:47;;;;;;;13.38;8.50;;;;;;;15.19;42.74;102074.47;1769974;80;21293;-86
2022/04/13 10:38:14;;;;;;;17.30;8.00;;;;;;;15.33;42.39;102072.66;1767488;78;22597;-90
2022/04/13 10:40:51;;;;;;;17.70;9.15;;;;;;;15.39;41.91;102067.95;1772523;79;21042;-87
2022/04/13 10:43:18;;;;;;;12.78;7.55;;;;;;;15.36;41.49;102074.05;1764356;79;21658;-90
2022/04/13 10:45:55;;;;;;;18.50;9.13;;;;;;;15.32;41.29;102069.97;1762726;79;21108;-89
2022/04/13 10:48:32;;;;;;;13.22;9.05;;;;;;;15.31;41.13;102065.06;1759059;79;21050;-91
2022/04/13 10:51:10;;;;;;;19.82;8.90;;;;;;;15.34;41.09;102058.96;1749803;80;21066;-92
2022/04/13 10:54:05;;;;;;;14.07;8.35;;;;;;;15.47;40.99;102066.38;1770943;79;21112;-91
2022/04/13 10:56:56;;;;;;;18.80;9.43;;;;;;;15.53;40.72;102062.98;1781854;80;21141;-90
2022/04/13 10:59:28;;;;;;;;;;;;;;;;;;;;;
2022/04/13 11:02:03;;;;;;;13.62;8.93;;;;;;;15.62;40.72;102067.20;1714871;81;21128;-90
2022/04/13 11:04:38;;;;;;;13.65;7.97;;;;;;;15.70;40.65;102065.62;1709309;80;21612;-86
2022/04/13 11:10:35;;;;;;;13.50;9.88;;;;;;;15.85;40.51;102062.93;1682049;82;21078;-86
2022/04/13 11:13:05;;;;;;;19.40;9.70;;;;;;;15.78;39.92;102062.30;1735997;81;21177;-86
2022/04/13 11:15:56;;;;;;;12.47;8.30;;;;;;;15.60;39.86;102063.62;1745556;80;21283;-87
2022/04/13 11:18:24;;;;;;;13.80;8.53;;;;;;;15.39;39.90;102043.14;1719315;80;21620;-85
2022/04/13 11:21:06;;;;;;;14.60;9.08;;;;;;;15.54;40.03;102058.13;1752884;79;21027;-86
2022/04/13 11:23:53;;;;;;;12.60;8.73;;;;;;;15.57;39.90;102051.58;1757018;79;21027;-86
2022/04/13 11:26:44;;;;;;;14.73;8.80;;;;;;;15.57;39.76;102033.45;1748821;80;21102;-85
2022/04/13 11:29:24;;;;;;;16.85;10.20;;;;;;;15.64;39.57;102042.92;1762399;80;21932;-86
2022/04/13 11:32:05;;;;;;;10.35;7.87;;;;;;;15.59;39.56;102047.65;1765907;80;21756;-85